createdAt,value
2022-12-03T00:01:16.702Z,101327.25
2022-12-03T00:03:44.060Z,101328.88
2022-12-03T00:06:11.368Z,101323.94
2022-12-03T00:08:38.723Z,101324.38
2022-12-03T00:11:05.852Z,101323.38
2022-12-03T00:13:33.035Z,101326.31
2022-12-03T00:16:00.227Z,101326.13
2022-12-03T00:18:27.779Z,101317.06
2022-12-03T00:20:55.012Z,101327.06
2022-12-03T00:23:22.252Z,101315.06
2022-12-03T00:25:49.402Z,101313.56
2022-12-03T00:28:16.680Z,101304.84
2022-12-03T00:30:43.982Z,101305.63
2022-12-03T00:33:11.241Z,101309.63
2022-12-03T00:35:38.437Z,101306.69
2022-12-03T00:38:05.645Z,101305.56
2022-12-03T00:40:32.801Z,101297.50
2022-12-03T00:43:00.010Z,101301.13
2022-12-03T00:45:27.320Z,101302.59
2022-12-03T00:47:54.559Z,101299.94
2022-12-03T00:50:21.774Z,101300.50
2022-12-03T00:52:49.926Z,101295.50
2022-12-03T00:55:17.741Z,101299.97
2022-12-03T00:57:45.254Z,101301.25
2022-12-03T01:00:13.603Z,101299.44
2022-12-03T01:02:40.847Z,101301.13
2022-12-03T01:05:08.322Z,101299.72
2022-12-03T01:07:36.396Z,101292.91
2022-12-03T01:10:05.104Z,101285.97
2022-12-03T01:12:32.348Z,101284.28
2022-12-03T01:14:59.488Z,101281.28
2022-12-03T01:17:26.932Z,101288.75
2022-12-03T01:19:54.189Z,101288.00
2022-12-03T01:22:21.648Z,101281.78
2022-12-03T01:24:48.888Z,101280.66
2022-12-03T01:27:16.231Z,101284.59
2022-12-03T01:29:43.525Z,101286.19
2022-12-03T01:32:16.783Z,101289.28
2022-12-03T01:34:44.641Z,101291.13
2022-12-03T01:37:12.052Z,101289.66
2022-12-03T01:39:39.749Z,101300.47
2022-12-03T01:42:09.199Z,101290.09
2022-12-03T01:44:38.297Z,101289.63
2022-12-03T01:47:07.278Z,101292.88
2022-12-03T01:49:37.948Z,101297.16
2022-12-03T01:52:05.820Z,101306.19
2022-12-03T01:54:38.771Z,101313.75
2022-12-03T01:57:11.422Z,101313.63
2022-12-03T01:59:38.930Z,101309.59
2022-12-03T02:02:19.577Z,101310.47
2022-12-03T02:04:47.438Z,101318.00
2022-12-03T02:07:17.691Z,101314.47
2022-12-03T02:09:44.885Z,101302.03
2022-12-03T02:12:12.526Z,101300.94
2022-12-03T02:14:39.757Z,101307.34
2022-12-03T02:17:06.996Z,101311.22
2022-12-03T02:19:34.771Z,101319.75
2022-12-03T02:22:13.985Z,101311.41
2022-12-03T02:24:53.149Z,101310.72
2022-12-03T02:27:20.625Z,101308.13
2022-12-03T02:29:47.866Z,101293.91
2022-12-03T02:32:15.344Z,101288.88
2022-12-03T02:34:43.853Z,101296.84
2022-12-03T02:37:13.710Z,101289.91
2022-12-03T02:39:43.071Z,101293.56
2022-12-03T02:42:29.447Z,101276.78
2022-12-03T02:45:02.150Z,101283.28
2022-12-03T02:47:33.869Z,101275.72
2022-12-03T02:50:01.330Z,101284.41
2022-12-03T02:52:28.579Z,101293.06
2022-12-03T02:54:55.940Z,101285.19
2022-12-03T02:57:23.407Z,101287.81
2022-12-03T02:59:51.107Z,101275.84
2022-12-03T03:02:18.865Z,101278.44
2022-12-03T03:04:46.314Z,101284.59
2022-12-03T03:07:14.177Z,101278.59
2022-12-03T03:09:41.788Z,101282.78
2022-12-03T03:12:09.705Z,101272.63
2022-12-03T03:14:36.969Z,101283.09
2022-12-03T03:17:04.391Z,101278.31
2022-12-03T03:19:31.568Z,101270.84
2022-12-03T03:21:58.834Z,101271.66
2022-12-03T03:24:26.539Z,101272.69
2022-12-03T03:26:54.036Z,101272.34
2022-12-03T03:29:21.652Z,101273.94
2022-12-03T03:31:49.279Z,101272.94
2022-12-03T03:34:16.787Z,101274.44
2022-12-03T03:36:44.333Z,101276.91
2022-12-03T03:39:11.926Z,101271.34
2022-12-03T03:41:39.453Z,101270.84
2022-12-03T03:44:07.367Z,101271.59
2022-12-03T03:46:35.190Z,101262.84
2022-12-03T03:49:02.668Z,101264.59
2022-12-03T03:51:30.556Z,101256.09
2022-12-03T03:53:58.065Z,101267.25
2022-12-03T03:56:26.019Z,101261.25
2022-12-03T03:58:53.348Z,101259.44
2022-12-03T04:01:21.080Z,101260.88
2022-12-03T04:03:48.517Z,101256.72
2022-12-03T04:06:16.078Z,101248.44
2022-12-03T04:08:43.243Z,101252.91
2022-12-03T04:11:28.738Z,101245.81
2022-12-03T04:13:56.133Z,101229.56
2022-12-03T04:16:23.428Z,101233.97
2022-12-03T04:18:50.984Z,101246.22
2022-12-03T04:21:40.924Z,101247.84
2022-12-03T04:24:09.849Z,101248.09
2022-12-03T04:26:55.626Z,101234.53
2022-12-03T04:29:22.861Z,101228.34
2022-12-03T04:32:08.817Z,101232.75
2022-12-03T04:34:54.851Z,101226.41
2022-12-03T04:37:22.340Z,101230.88
2022-12-03T04:39:49.629Z,101233.16
2022-12-03T04:42:16.958Z,101236.63
2022-12-03T04:44:44.226Z,101228.84
2022-12-03T04:47:21.906Z,101233.22
2022-12-03T04:49:49.906Z,101224.50
2022-12-03T04:52:18.492Z,101226.47
2022-12-03T04:54:45.849Z,101211.00
2022-12-03T04:57:13.244Z,101219.41
2022-12-03T04:59:40.446Z,101210.94
2022-12-03T05:02:07.732Z,101206.91
2022-12-03T05:04:35.071Z,101206.91
2022-12-03T05:07:02.279Z,101205.47
2022-12-03T05:09:29.599Z,101204.59
2022-12-03T05:11:56.791Z,101201.25
2022-12-03T05:14:24.123Z,101204.50
2022-12-03T05:16:51.397Z,101204.50
2022-12-03T05:19:18.698Z,101191.22
2022-12-03T05:21:45.874Z,101198.22
2022-12-03T05:24:14.858Z,101198.91
2022-12-03T05:26:42.026Z,101195.25
2022-12-03T05:29:09.249Z,101186.88
2022-12-03T05:31:36.405Z,101190.50
2022-12-03T05:34:04.499Z,101177.72
2022-12-03T05:36:31.710Z,101188.31
2022-12-03T05:38:59.058Z,101188.88
2022-12-03T05:41:49.291Z,101185.16
2022-12-03T05:44:20.512Z,101181.56
2022-12-03T05:46:48.293Z,101177.28
2022-12-03T05:49:15.493Z,101178.28
2022-12-03T05:51:43.565Z,101172.94
2022-12-03T05:54:10.704Z,101171.41
2022-12-03T05:56:38.025Z,101170.47
2022-12-03T05:59:05.136Z,101177.22
2022-12-03T06:01:32.389Z,101171.13
2022-12-03T06:03:59.676Z,101165.81
2022-12-03T06:06:26.933Z,101167.66
2022-12-03T06:08:54.057Z,101167.19
2022-12-03T06:11:21.323Z,101161.31
2022-12-03T06:13:48.488Z,101171.72
2022-12-03T06:16:15.821Z,101170.78
2022-12-03T06:18:43.064Z,101164.66
2022-12-03T06:21:10.323Z,101166.06
2022-12-03T06:23:37.774Z,101173.13
2022-12-03T06:26:05.209Z,101167.53
2022-12-03T06:28:32.389Z,101169.47
2022-12-03T06:30:59.714Z,101156.53
2022-12-03T06:33:26.932Z,101166.16
2022-12-03T06:35:54.152Z,101157.97
2022-12-03T06:38:22.325Z,101166.31
2022-12-03T06:40:49.602Z,101163.97
2022-12-03T06:43:16.802Z,101160.50
2022-12-03T06:45:47.717Z,101164.09
2022-12-03T06:48:15.317Z,101162.97
2022-12-03T06:50:42.434Z,101148.56
2022-12-03T06:53:09.666Z,101163.34
2022-12-03T06:55:36.880Z,101151.19
2022-12-03T06:58:04.273Z,101156.31
2022-12-03T07:00:31.518Z,101154.31
2022-12-03T07:02:58.845Z,101153.66
2022-12-03T07:05:26.047Z,101155.53
2022-12-03T07:07:55.467Z,101164.00
2022-12-03T07:10:22.838Z,101172.75
2022-12-03T07:12:50.218Z,101164.00
2022-12-03T07:15:17.552Z,101165.06
2022-12-03T07:17:44.815Z,101160.91
2022-12-03T07:20:12.203Z,101165.25
2022-12-03T07:22:39.577Z,101165.31
2022-12-03T07:25:07.526Z,101171.22
2022-12-03T07:27:34.750Z,101156.78
2022-12-03T07:30:01.866Z,101168.94
2022-12-03T07:32:29.097Z,101163.59
2022-12-03T07:34:56.555Z,101163.00
2022-12-03T07:37:23.880Z,101163.97
2022-12-03T07:39:53.176Z,101167.81
2022-12-03T07:42:20.490Z,101161.53
2022-12-03T07:47:00.972Z,101169.78
2022-12-03T07:49:28.708Z,101153.78
2022-12-03T07:51:57.252Z,101161.31
2022-12-03T07:54:24.865Z,101156.78
2022-12-03T07:56:56.562Z,101152.13
2022-12-03T07:59:27.629Z,101173.16
2022-12-03T08:01:55.128Z,101161.31
2022-12-03T08:04:22.879Z,101151.25
2022-12-03T08:06:50.574Z,101158.78
2022-12-03T08:09:17.989Z,101159.19
2022-12-03T08:11:49.463Z,101153.19
2022-12-03T08:14:19.950Z,101155.25
2022-12-03T08:16:48.778Z,101154.09
2022-12-03T08:19:18.128Z,101146.56
2022-12-03T08:21:45.602Z,101152.63
2022-12-03T08:24:12.897Z,101154.38
2022-12-03T08:26:40.652Z,101147.44
2022-12-03T08:29:11.846Z,101149.97
2022-12-03T08:31:40.036Z,101140.41
2022-12-03T08:34:22.279Z,101138.19
2022-12-03T08:36:56.203Z,101139.81
2022-12-03T08:39:49.621Z,101140.56
2022-12-03T08:42:41.895Z,101137.81
2022-12-03T08:45:28.343Z,101143.16
2022-12-03T08:48:00.553Z,101136.41
2022-12-03T08:50:31.142Z,101138.38
2022-12-03T08:53:20.882Z,101135.84
2022-12-03T08:55:53.107Z,101134.91
2022-12-03T08:58:38.885Z,101142.53
2022-12-03T09:01:12.185Z,101143.16
2022-12-03T09:03:49.503Z,101145.19
2022-12-03T09:06:17.174Z,101141.25
2022-12-03T09:08:44.438Z,101140.44
2022-12-03T09:11:11.794Z,101139.50
2022-12-03T09:13:39.297Z,101136.19
2022-12-03T09:16:07.395Z,101135.38
2022-12-03T09:18:35.016Z,101140.78
2022-12-03T09:21:02.541Z,101142.13
2022-12-03T09:23:29.773Z,101147.25
2022-12-03T09:25:57.152Z,101129.97
2022-12-03T09:28:24.510Z,101136.59
2022-12-03T09:30:51.899Z,101121.91
2022-12-03T09:33:19.408Z,101116.03
2022-12-03T09:35:46.907Z,101133.09
2022-12-03T09:38:14.312Z,101145.03
2022-12-03T09:40:42.432Z,101157.09
2022-12-03T09:43:11.032Z,101147.38
2022-12-03T09:45:38.843Z,101149.03
2022-12-03T09:48:06.524Z,101151.56
2022-12-03T09:50:34.310Z,101158.44
2022-12-03T09:53:03.891Z,101164.16
2022-12-03T09:55:31.922Z,101153.50
2022-12-03T09:58:00.800Z,101156.84
2022-12-03T10:00:30.523Z,101150.03
2022-12-03T10:03:02.206Z,101176.22
2022-12-03T10:05:30.095Z,101154.09
2022-12-03T10:08:06.253Z,101150.56
2022-12-03T10:10:35.463Z,101142.81
2022-12-03T10:13:04.148Z,101138.63
2022-12-03T10:15:32.243Z,101161.00
2022-12-03T10:18:01.486Z,101138.00
2022-12-03T10:20:28.972Z,101134.22
2022-12-03T10:22:56.334Z,101147.59
2022-12-03T10:25:23.632Z,101133.03
2022-12-03T10:28:00.966Z,101116.25
2022-12-03T10:30:29.057Z,101137.69
2022-12-03T10:32:58.606Z,101128.63
2022-12-03T10:35:51.476Z,101118.03
2022-12-03T10:38:19.421Z,101109.09
2022-12-03T10:40:46.949Z,101122.00
2022-12-03T10:43:20.272Z,101121.81
2022-12-03T10:45:48.869Z,101122.66
2022-12-03T10:48:17.776Z,101130.88
2022-12-03T10:50:56.576Z,101124.84
2022-12-03T10:53:28.546Z,101119.03
2022-12-03T10:55:59.796Z,101104.72
2022-12-03T10:58:29.703Z,101102.50
2022-12-03T11:00:58.696Z,101099.31
2022-12-03T11:03:28.912Z,101116.94
2022-12-03T11:05:57.906Z,101097.88
2022-12-03T11:08:27.925Z,101098.06
2022-12-03T11:10:58.735Z,101086.94
2022-12-03T11:13:44.609Z,101080.50
2022-12-03T11:16:13.403Z,101081.06
2022-12-03T11:18:40.781Z,101073.25
2022-12-03T11:21:12.104Z,101082.88
2022-12-03T11:23:45.606Z,101072.75
2022-12-03T11:26:18.613Z,101070.84
2022-12-03T11:28:46.826Z,101078.13
2022-12-03T11:31:36.343Z,101059.97
2022-12-03T11:34:17.205Z,101062.63
2022-12-03T11:37:12.368Z,101061.72
2022-12-03T11:39:52.871Z,101065.03
2022-12-03T11:42:27.356Z,101054.97
2022-12-03T11:45:05.408Z,101058.66
2022-12-03T11:47:39.687Z,101058.66
2022-12-03T11:50:40.181Z,101051.66
2022-12-03T11:53:07.903Z,101048.19
2022-12-03T11:55:40.925Z,101058.06
2022-12-03T11:58:29.964Z,101059.31
2022-12-03T12:01:00.435Z,101052.31
2022-12-03T12:03:33.494Z,101044.41
2022-12-03T12:06:09.778Z,101026.19
2022-12-03T12:08:39.917Z,101028.16
2022-12-03T12:11:21.162Z,101028.72
2022-12-03T12:14:02.831Z,101030.25
2022-12-03T12:16:52.823Z,101032.78
2022-12-03T12:19:33.625Z,101020.63
2022-12-03T12:22:25.283Z,101017.31
2022-12-03T12:24:56.477Z,101008.03
2022-12-03T12:27:45.162Z,101010.81
2022-12-03T12:30:21.729Z,101009.50
2022-12-03T12:32:53.591Z,101001.84
2022-12-03T12:35:21.137Z,100996.78
2022-12-03T12:37:58.158Z,100999.19
2022-12-03T12:40:32.951Z,100994.31
2022-12-03T12:43:25.049Z,100985.75
2022-12-03T12:45:55.269Z,100985.59
2022-12-03T12:48:24.812Z,100991.09
2022-12-03T12:51:11.350Z,101001.00
2022-12-03T12:53:42.653Z,101011.59
2022-12-03T12:56:27.744Z,100986.00
2022-12-03T12:58:59.432Z,100997.84
2022-12-03T13:01:30.057Z,100981.75
2022-12-03T13:03:59.670Z,100974.22
2022-12-03T13:06:30.339Z,100974.50
2022-12-03T13:09:01.315Z,100976.69
2022-12-03T13:11:51.878Z,100967.13
2022-12-03T13:14:24.010Z,100979.94
2022-12-03T13:16:54.958Z,100975.41
2022-12-03T13:19:25.086Z,100966.75
2022-12-03T13:21:54.312Z,100973.06
2022-12-03T13:24:40.705Z,100967.91
2022-12-03T13:27:13.867Z,100962.16
2022-12-03T13:29:41.386Z,100962.34
2022-12-03T13:32:14.290Z,100959.13
2022-12-03T13:34:42.876Z,100949.41
2022-12-03T13:37:20.986Z,100940.81
2022-12-03T13:39:50.976Z,100940.34
2022-12-03T13:42:46.096Z,100940.34
2022-12-03T13:45:15.920Z,100949.03
2022-12-03T13:47:55.235Z,100941.91
2022-12-03T13:50:31.413Z,100933.22
2022-12-03T13:53:01.097Z,100932.13
2022-12-03T13:55:31.166Z,100933.41
2022-12-03T13:57:58.836Z,100926.03
2022-12-03T14:00:26.361Z,100930.56
2022-12-03T14:02:54.009Z,100931.56
2022-12-03T14:05:22.493Z,100934.78
2022-12-03T14:07:50.206Z,100933.16
2022-12-03T14:10:17.802Z,100946.44
2022-12-03T14:12:45.093Z,100938.56
2022-12-03T14:15:12.280Z,100931.78
2022-12-03T14:17:39.673Z,100931.59
2022-12-03T14:20:08.212Z,100932.31
2022-12-03T14:22:38.165Z,100946.31
2022-12-03T14:25:07.134Z,100928.59
2022-12-03T14:27:35.169Z,100941.06
2022-12-03T14:30:02.788Z,100933.56
2022-12-03T14:32:30.433Z,100915.56
2022-12-03T14:34:57.962Z,100919.28
2022-12-03T14:37:25.511Z,100918.34
2022-12-03T14:39:53.298Z,100912.50
2022-12-03T14:42:21.187Z,100925.03
2022-12-03T14:44:52.389Z,100920.41
2022-12-03T14:47:24.986Z,100916.00
2022-12-03T14:49:53.187Z,100921.84
2022-12-03T14:52:20.838Z,100925.91
2022-12-03T14:54:48.158Z,100925.81
2022-12-03T14:57:16.517Z,100917.78
2022-12-03T14:59:44.870Z,100932.34
2022-12-03T15:02:13.217Z,100926.13
2022-12-03T15:04:41.337Z,100920.94
2022-12-03T15:07:09.602Z,100925.13
2022-12-03T15:09:37.179Z,100912.81
2022-12-03T15:12:04.676Z,100921.41
2022-12-03T15:14:32.097Z,100911.44
2022-12-03T15:16:59.554Z,100898.75
2022-12-03T15:19:26.951Z,100894.72
2022-12-03T15:21:54.173Z,100893.84
2022-12-03T15:24:22.533Z,100901.91
2022-12-03T15:26:53.586Z,100902.84
2022-12-03T15:29:21.225Z,100899.50
2022-12-03T15:31:48.618Z,100890.63
2022-12-03T15:34:21.822Z,100895.81
2022-12-03T15:36:50.598Z,100891.47
2022-12-03T15:39:18.089Z,100908.94
2022-12-03T15:41:45.417Z,100893.41
2022-12-03T15:44:12.613Z,100905.50
2022-12-03T15:46:39.841Z,100904.44
2022-12-03T15:49:07.130Z,100908.91
2022-12-03T15:51:34.622Z,100899.78
2022-12-03T15:54:02.154Z,100893.75
2022-12-03T15:56:29.452Z,100897.09
2022-12-03T15:58:56.830Z,100892.09
2022-12-03T16:01:24.755Z,100897.16
2022-12-03T16:03:52.117Z,100892.59
2022-12-03T16:06:19.757Z,100899.63
2022-12-03T16:08:48.180Z,100899.72
2022-12-03T16:11:16.039Z,100893.84
2022-12-03T16:13:43.571Z,100911.34
2022-12-03T16:16:10.913Z,100897.72
2022-12-03T16:18:38.151Z,100894.97
2022-12-03T16:21:05.329Z,100891.16
2022-12-03T16:23:32.604Z,100899.00
2022-12-03T16:26:00.225Z,100889.59
2022-12-03T16:28:27.531Z,100892.50
2022-12-03T16:30:54.843Z,100902.03
2022-12-03T16:33:27.298Z,100896.06
2022-12-03T16:35:55.317Z,100895.75
2022-12-03T16:38:22.738Z,100889.09
2022-12-03T16:40:50.317Z,100893.34
2022-12-03T16:43:17.684Z,100890.94
2022-12-03T16:46:20.170Z,100888.72
2022-12-03T16:48:48.828Z,100889.22
2022-12-03T16:51:17.071Z,100883.25
2022-12-03T16:53:45.124Z,100882.94
2022-12-03T16:56:12.559Z,100883.56
2022-12-03T16:58:40.154Z,100887.16
2022-12-03T17:01:07.684Z,100883.75
2022-12-03T17:03:35.380Z,100878.13
2022-12-03T17:06:03.365Z,100880.59
2022-12-03T17:08:31.033Z,100874.19
2022-12-03T17:10:58.543Z,100878.88
2022-12-03T17:13:25.957Z,100881.06
2022-12-03T17:15:53.400Z,100875.84
2022-12-03T17:18:21.036Z,100880.25
2022-12-03T17:20:57.091Z,100879.22
2022-12-03T17:23:24.686Z,100879.22
2022-12-03T17:25:51.953Z,100878.22
2022-12-03T17:28:19.272Z,100884.38
2022-12-03T17:30:46.607Z,100884.44
2022-12-03T17:33:14.116Z,100882.13
2022-12-03T17:35:41.500Z,100881.53
2022-12-03T17:38:09.760Z,100884.44
2022-12-03T17:40:37.198Z,100887.00
2022-12-03T17:43:04.602Z,100890.94
2022-12-03T17:45:31.732Z,100889.56
2022-12-03T17:47:59.134Z,100895.56
2022-12-03T17:50:26.928Z,100893.94
2022-12-03T17:52:54.410Z,100886.72
2022-12-03T17:55:33.588Z,100889.81
2022-12-03T17:58:04.261Z,100892.63
2022-12-03T18:00:33.285Z,100894.88
2022-12-03T18:03:00.874Z,100893.41
2022-12-03T18:05:28.159Z,100891.03
2022-12-03T18:07:55.499Z,100897.97
2022-12-03T18:10:22.877Z,100899.50
2022-12-03T18:12:50.258Z,100894.50
2022-12-03T18:15:17.629Z,100882.94
2022-12-03T18:17:44.982Z,100884.00
2022-12-03T18:20:12.576Z,100884.81
2022-12-03T18:22:40.217Z,100888.00
2022-12-03T18:25:08.115Z,100879.06
2022-12-03T18:27:35.651Z,100878.81
2022-12-03T18:30:03.159Z,100871.31
2022-12-03T18:32:30.663Z,100864.63
2022-12-03T18:34:58.260Z,100867.28
2022-12-03T18:37:32.363Z,100867.38
2022-12-03T18:40:00.522Z,100877.66
2022-12-03T18:42:28.071Z,100879.69
2022-12-03T18:44:56.203Z,100871.72
2022-12-03T18:47:27.724Z,100875.22
2022-12-03T18:49:56.359Z,100865.91
2022-12-03T18:52:25.198Z,100876.44
2022-12-03T18:54:54.519Z,100866.47
2022-12-03T18:57:22.011Z,100866.31
2022-12-03T18:59:49.671Z,100873.66
2022-12-03T19:05:09.742Z,100880.00
2022-12-03T19:07:37.804Z,100875.47
2022-12-03T19:10:05.961Z,100879.38
2022-12-03T19:12:33.780Z,100878.81
2022-12-03T19:15:01.558Z,100876.72
2022-12-03T19:17:28.956Z,100878.88
2022-12-03T19:19:56.590Z,100873.16
2022-12-03T19:22:24.462Z,100872.00
2022-12-03T19:24:52.102Z,100877.28
2022-12-03T19:27:19.572Z,100873.25
2022-12-03T19:29:50.097Z,100870.22
2022-12-03T19:32:17.545Z,100865.94
2022-12-03T19:34:44.771Z,100874.47
2022-12-03T19:37:12.283Z,100867.16
2022-12-03T19:39:39.589Z,100863.81
2022-12-03T19:42:07.111Z,100863.59
2022-12-03T19:44:34.441Z,100864.28
2022-12-03T19:47:01.821Z,100872.47
2022-12-03T19:49:29.104Z,100868.44
2022-12-03T19:51:56.366Z,100870.72
2022-12-03T19:54:24.435Z,100874.66
2022-12-03T19:56:52.042Z,100870.03
2022-12-03T19:59:19.402Z,100868.81
2022-12-03T20:01:46.839Z,100865.88
2022-12-03T20:04:14.362Z,100860.34
2022-12-03T20:06:41.827Z,100854.50
2022-12-03T20:09:13.347Z,100858.56
2022-12-03T20:11:42.703Z,100852.97
2022-12-03T20:14:15.371Z,100851.91
2022-12-03T20:16:44.060Z,100850.41
2022-12-03T20:19:14.024Z,100845.53
2022-12-03T20:21:42.926Z,100843.78
2022-12-03T20:24:14.568Z,100842.66
2022-12-03T20:26:42.472Z,100840.94
2022-12-03T20:29:09.837Z,100842.81
2022-12-03T20:31:37.458Z,100839.50
2022-12-03T20:34:04.942Z,100836.28
2022-12-03T20:36:33.044Z,100848.97
2022-12-03T20:39:03.013Z,100842.91
2022-12-03T20:41:30.897Z,100834.50
2022-12-03T20:43:58.318Z,100835.59
2022-12-03T20:46:27.065Z,100838.94
2022-12-03T20:48:55.523Z,100833.94
2022-12-03T20:51:26.388Z,100836.31
2022-12-03T20:53:54.189Z,100836.91
2022-12-03T20:56:26.020Z,100828.75
2022-12-03T20:58:53.832Z,100837.09
2022-12-03T21:01:24.385Z,100836.50
2022-12-03T21:03:53.970Z,100837.09
2022-12-03T21:06:22.496Z,100847.00
2022-12-03T21:08:52.243Z,100838.16
2022-12-03T21:11:24.181Z,100832.78
2022-12-03T21:13:52.568Z,100843.03
2022-12-03T21:16:45.693Z,100835.22
2022-12-03T21:19:11.135Z,100840.06
2022-12-03T21:21:38.589Z,100828.75
2022-12-03T21:24:06.129Z,100843.78
2022-12-03T21:26:33.437Z,100829.25
2022-12-03T21:29:00.733Z,100827.69
2022-12-03T21:31:28.265Z,100831.47
2022-12-03T21:33:56.846Z,100836.66
2022-12-03T21:36:25.397Z,100825.38
2022-12-03T21:38:53.314Z,100828.72
2022-12-03T21:41:20.762Z,100819.84
2022-12-03T21:43:48.094Z,100831.84
2022-12-03T21:47:10.409Z,100829.72
2022-12-03T21:49:04.875Z,100824.38
2022-12-03T21:51:32.113Z,100825.56
2022-12-03T21:53:59.414Z,100826.09
2022-12-03T21:56:26.798Z,100832.09
2022-12-03T21:58:54.938Z,100824.72
2022-12-03T22:01:24.510Z,100828.00
2022-12-03T22:03:52.090Z,100828.66
2022-12-03T22:06:20.411Z,100817.41
2022-12-03T22:08:48.294Z,100824.94
2022-12-03T22:11:21.510Z,100822.34
2022-12-03T22:13:49.345Z,100823.06
2022-12-03T22:16:19.764Z,100817.78
2022-12-03T22:18:48.021Z,100813.50
2022-12-03T22:21:18.306Z,100817.88
2022-12-03T22:23:46.429Z,100824.31
2022-12-03T22:26:16.460Z,100828.75
2022-12-03T22:28:48.669Z,100822.50
2022-12-03T22:31:18.295Z,100827.38
2022-12-03T22:33:48.494Z,100834.00
2022-12-03T22:36:20.885Z,100827.13
2022-12-03T22:38:50.471Z,100825.84
2022-12-03T22:41:19.176Z,100827.66
2022-12-03T22:43:47.635Z,100818.69
2022-12-03T22:46:15.954Z,100814.66
2022-12-03T22:48:47.932Z,100816.31
2022-12-03T22:51:18.540Z,100811.16
2022-12-03T22:53:49.250Z,100811.16
2022-12-03T22:56:21.766Z,100805.47
2022-12-03T22:58:50.701Z,100801.19
2022-12-03T23:01:28.009Z,100805.81
2022-12-03T23:03:55.776Z,100804.06
2022-12-03T23:06:24.207Z,100801.63
2022-12-03T23:08:52.505Z,100806.75
2022-12-03T23:11:20.198Z,100810.38
2022-12-03T23:13:48.537Z,100808.28
2022-12-03T23:16:18.999Z,100804.88
2022-12-03T23:18:46.628Z,100804.16
2022-12-03T23:21:23.921Z,100807.53
2022-12-03T23:23:54.817Z,100802.88
2022-12-03T23:26:22.243Z,100802.63
2022-12-03T23:28:49.858Z,100802.25
2022-12-03T23:31:24.663Z,100802.56
2022-12-03T23:33:53.373Z,100801.69
2022-12-03T23:36:22.330Z,100798.94
2022-12-03T23:38:49.945Z,100798.78
2022-12-03T23:41:18.968Z,100797.59
2022-12-03T23:43:46.829Z,100808.38
2022-12-03T23:46:17.892Z,100804.34
2022-12-03T23:48:46.044Z,100792.19
2022-12-03T23:51:16.306Z,100797.19
2022-12-03T23:53:44.989Z,100783.16
2022-12-03T23:56:15.998Z,100789.09
2022-12-03T23:58:44.530Z,100786.63
